Akoya — 2APL5 — position and weather

sailwx.info

Track history (hours):
 
Tides and Currents Weather Stations Pressure Air Temp Water Temp Dewpoint Dewpoint Depression Visibility Wind Speed Wind Dir Waves Ship Positions

Akoya

Last reported at 2017-Sep-21 14:00 UTC. Time now 2017-Dec-12 12:34 UTC.
Position N 40°18' E 002°23'.
Warning: this ship's position is months out of date.

Length 18 m.

Type: Pleasure craft. MMSI: 235061871.

Date/timePositionNaut miles runAvg speedWind from/ knotsBaromVisibWave heightAir tempDewpointWater temp
2017-Sep-21 14:00N 40°18' E 002°23'4 5.9
2017-Sep-21 13:24N 40°14' E 002°23'2 5.8
2017-Sep-21 12:59N 40°12' E 002°23'4 5.8
2017-Sep-21 12:21N 40°08' E 002°23'2 5.8
2017-Sep-21 11:58N 40°06' E 002°23'3 6.0
2017-Sep-21 11:30N 40°03' E 002°23'3 6.2
2017-Sep-21 10:59N 40°00' E 002°22'3 6.4
2017-Sep-21 10:30N 39°57' E 002°22'4 4.7
2017-Sep-21 09:37N 39°53' E 002°22'25 1.2
2017-Sep-20 13:08N 39°29' E 002°34'1 5.3
2017-Sep-20 12:58N 39°30' E 002°35'3 5.4
2017-Sep-20 12:30N 39°32' E 002°37'1 2.7
2017-Sep-20 11:58N 39°33' E 002°38'0 0.0
2017-Sep-20 11:28N 39°33' E 002°38'  
Track history (hours):
 
Tides and Currents Weather Stations Pressure Air Temp Water Temp Dewpoint Dewpoint Depression Visibility Wind Speed Wind Dir Waves Ship Positions

Akoya

Last reported at 2017-Sep-21 14:00 UTC. Time now 2017-Dec-12 12:34 UTC.
Position N 40°18' E 002°23'.
Warning: this ship's position is months out of date.

Length 18 m.

Type: Pleasure craft. MMSI: 235061871.

Date/timePositionNaut miles runAvg speedWind from/ knotsBaromVisibWave heightAir tempDewpointWater temp
2017-Sep-21 14:00N 40°18' E 002°23'4 5.9
2017-Sep-21 13:24N 40°14' E 002°23'2 5.8
2017-Sep-21 12:59N 40°12' E 002°23'4 5.8
2017-Sep-21 12:21N 40°08' E 002°23'2 5.8
2017-Sep-21 11:58N 40°06' E 002°23'3 6.0
2017-Sep-21 11:30N 40°03' E 002°23'3 6.2
2017-Sep-21 10:59N 40°00' E 002°22'3 6.4
2017-Sep-21 10:30N 39°57' E 002°22'4 4.7
2017-Sep-21 09:37N 39°53' E 002°22'25 1.2
2017-Sep-20 13:08N 39°29' E 002°34'1 5.3
2017-Sep-20 12:58N 39°30' E 002°35'3 5.4
2017-Sep-20 12:30N 39°32' E 002°37'1 2.7
2017-Sep-20 11:58N 39°33' E 002°38'0 0.0
2017-Sep-20 11:28N 39°33' E 002°38'  

Dump ship's entire track history